sensor_id;sensor_type;location;lat;lon;timestamp;temperature;humidity
18281;DHT22;9266;51.132;17.062;2023-04-08T00:00:31;5.20;99.90
18281;DHT22;9266;51.132;17.062;2023-04-08T00:02:58;5.30;99.90
18281;DHT22;9266;51.132;17.062;2023-04-08T00:05:27;5.20;99.90
18281;DHT22;9266;51.132;17.062;2023-04-08T00:07:54;5.10;99.90
18281;DHT22;9266;51.132;17.062;2023-04-08T00:10:21;5.10;99.90
18281;DHT22;9266;51.132;17.062;2023-04-08T00:12:49;5.10;99.90
18281;DHT22;9266;51.132;17.062;2023-04-08T00:15:16;5.10;99.90
18281;DHT22;9266;51.132;17.062;2023-04-08T00:17:43;5.10;99.90
18281;DHT22;9266;51.132;17.062;2023-04-08T00:20:11;5.20;99.90
18281;DHT22;9266;51.132;17.062;2023-04-08T00:22:39;5.20;99.90
18281;DHT22;9266;51.132;17.062;2023-04-08T00:25:07;5.20;99.90
18281;DHT22;9266;51.132;17.062;2023-04-08T00:27:34;5.10;99.90
18281;DHT22;9266;51.132;17.062;2023-04-08T00:30:01;5.10;99.90
18281;DHT22;9266;51.132;17.062;2023-04-08T00:32:28;5.10;99.90
18281;DHT22;9266;51.132;17.062;2023-04-08T00:34:55;5.20;99.90
18281;DHT22;9266;51.132;17.062;2023-04-08T00:37:22;5.10;99.90
18281;DHT22;9266;51.132;17.062;2023-04-08T00:39:51;5.20;99.90
18281;DHT22;9266;51.132;17.062;2023-04-08T00:42:18;5.20;99.90
18281;DHT22;9266;51.132;17.062;2023-04-08T00:44:46;5.30;99.90
18281;DHT22;9266;51.132;17.062;2023-04-08T00:47:14;5.30;99.90
18281;DHT22;9266;51.132;17.062;2023-04-08T00:49:41;5.40;99.90
18281;DHT22;9266;51.132;17.062;2023-04-08T00:52:08;5.40;99.90
18281;DHT22;9266;51.132;17.062;2023-04-08T00:54:36;5.40;99.90
18281;DHT22;9266;51.132;17.062;2023-04-08T00:57:05;5.50;99.90
18281;DHT22;9266;51.132;17.062;2023-04-08T00:59:32;5.50;99.90
18281;DHT22;9266;51.132;17.062;2023-04-08T01:02:07;5.50;99.90
18281;DHT22;9266;51.132;17.062;2023-04-08T01:04:43;5.50;99.90
18281;DHT22;9266;51.132;17.062;2023-04-08T01:07:16;5.50;99.90
18281;DHT22;9266;51.132;17.062;2023-04-08T01:09:46;5.50;99.90
18281;DHT22;9266;51.132;17.062;2023-04-08T01:12:19;5.50;99.90
18281;DHT22;9266;51.132;17.062;2023-04-08T01:14:49;5.60;99.90
18281;DHT22;9266;51.132;17.062;2023-04-08T01:17:18;5.60;99.90
18281;DHT22;9266;51.132;17.062;2023-04-08T01:19:48;5.60;99.90
18281;DHT22;9266;51.132;17.062;2023-04-08T01:22:25;5.60;99.90
18281;DHT22;9266;51.132;17.062;2023-04-08T01:25:00;5.60;99.90
18281;DHT22;9266;51.132;17.062;2023-04-08T01:27:30;5.70;99.90
18281;DHT22;9266;51.132;17.062;2023-04-08T01:29:58;5.70;99.90
18281;DHT22;9266;51.132;17.062;2023-04-08T01:32:27;5.70;99.90
18281;DHT22;9266;51.132;17.062;2023-04-08T01:34:55;5.60;99.90
18281;DHT22;9266;51.132;17.062;2023-04-08T01:37:24;5.60;99.90
18281;DHT22;9266;51.132;17.062;2023-04-08T01:39:54;5.40;99.90
18281;DHT22;9266;51.132;17.062;2023-04-08T01:42:23;5.20;99.90
18281;DHT22;9266;51.132;17.062;2023-04-08T01:44:54;5.20;99.90
18281;DHT22;9266;51.132;17.062;2023-04-08T01:47:22;5.10;99.90
18281;DHT22;9266;51.132;17.062;2023-04-08T01:49:50;5.00;99.90
18281;DHT22;9266;51.132;17.062;2023-04-08T01:52:19;5.00;99.90
18281;DHT22;9266;51.132;17.062;2023-04-08T01:54:47;4.90;99.90
18281;DHT22;9266;51.132;17.062;2023-04-08T01:57:18;4.80;99.90
18281;DHT22;9266;51.132;17.062;2023-04-08T01:59:51;4.80;99.90
18281;DHT22;9266;51.132;17.062;2023-04-08T02:02:19;4.70;99.90
18281;DHT22;9266;51.132;17.062;2023-04-08T02:04:48;4.70;99.90
18281;DHT22;9266;51.132;17.062;2023-04-08T02:07:15;4.70;99.90
18281;DHT22;9266;51.132;17.062;2023-04-08T02:09:42;4.60;99.90
18281;DHT22;9266;51.132;17.062;2023-04-08T02:12:09;4.60;99.90
18281;DHT22;9266;51.132;17.062;2023-04-08T02:14:37;4.60;99.90
18281;DHT22;9266;51.132;17.062;2023-04-08T02:17:09;4.60;99.90
18281;DHT22;9266;51.132;17.062;2023-04-08T02:19:43;4.60;99.90
18281;DHT22;9266;51.132;17.062;2023-04-08T02:22:17;4.60;99.90
18281;DHT22;9266;51.132;17.062;2023-04-08T02:24:45;4.60;99.90
18281;DHT22;9266;51.132;17.062;2023-04-08T02:27:12;4.50;99.90
18281;DHT22;9266;51.132;17.062;2023-04-08T02:29:40;4.50;99.90
18281;DHT22;9266;51.132;17.062;2023-04-08T02:32:10;4.50;99.90
18281;DHT22;9266;51.132;17.062;2023-04-08T02:34:39;4.50;99.90
18281;DHT22;9266;51.132;17.062;2023-04-08T02:37:07;4.50;99.90
18281;DHT22;9266;51.132;17.062;2023-04-08T02:39:35;4.50;99.90
18281;DHT22;9266;51.132;17.062;2023-04-08T02:42:03;4.50;99.90
18281;DHT22;9266;51.132;17.062;2023-04-08T02:44:30;4.50;99.90
18281;DHT22;9266;51.132;17.062;2023-04-08T02:46:57;4.50;99.90
18281;DHT22;9266;51.132;17.062;2023-04-08T02:49:25;4.50;99.90
18281;DHT22;9266;51.132;17.062;2023-04-08T02:51:52;4.50;99.90
18281;DHT22;9266;51.132;17.062;2023-04-08T02:54:19;4.50;99.90
18281;DHT22;9266;51.132;17.062;2023-04-08T02:56:46;4.50;99.90
18281;DHT22;9266;51.132;17.062;2023-04-08T02:59:13;4.50;99.90
18281;DHT22;9266;51.132;17.062;2023-04-08T03:01:41;4.50;99.90
18281;DHT22;9266;51.132;17.062;2023-04-08T03:04:08;4.50;99.90
18281;DHT22;9266;51.132;17.062;2023-04-08T03:06:36;4.50;99.90
18281;DHT22;9266;51.132;17.062;2023-04-08T03:09:03;4.50;99.90
18281;DHT22;9266;51.132;17.062;2023-04-08T03:11:31;4.50;99.90
18281;DHT22;9266;51.132;17.062;2023-04-08T03:13:58;4.50;99.90
18281;DHT22;9266;51.132;17.062;2023-04-08T03:16:26;4.50;99.90
18281;DHT22;9266;51.132;17.062;2023-04-08T03:18:53;4.50;99.90
18281;DHT22;9266;51.132;17.062;2023-04-08T03:21:20;4.50;99.90
18281;DHT22;9266;51.132;17.062;2023-04-08T03:23:48;4.50;99.90
18281;DHT22;9266;51.132;17.062;2023-04-08T03:26:15;4.50;99.90
18281;DHT22;9266;51.132;17.062;2023-04-08T03:28:42;4.50;99.90
18281;DHT22;9266;51.132;17.062;2023-04-08T03:31:09;4.50;99.90
18281;DHT22;9266;51.132;17.062;2023-04-08T03:33:36;7.20;99.90
18281;DHT22;9266;51.132;17.062;2023-04-08T03:36:03;4.50;99.90
18281;DHT22;9266;51.132;17.062;2023-04-08T03:38:30;4.60;99.90
18281;DHT22;9266;51.132;17.062;2023-04-08T03:40:59;4.60;99.90
18281;DHT22;9266;51.132;17.062;2023-04-08T03:43:26;4.60;99.90
18281;DHT22;9266;51.132;17.062;2023-04-08T03:45:53;4.60;99.90
18281;DHT22;9266;51.132;17.062;2023-04-08T03:48:21;4.60;99.90
18281;DHT22;9266;51.132;17.062;2023-04-08T03:50:48;4.60;99.90
18281;DHT22;9266;51.132;17.062;2023-04-08T03:53:15;4.60;99.90
18281;DHT22;9266;51.132;17.062;2023-04-08T03:55:42;4.50;99.90
18281;DHT22;9266;51.132;17.062;2023-04-08T03:58:10;4.60;99.90
18281;DHT22;9266;51.132;17.062;2023-04-08T04:00:37;3.90;99.90
18281;DHT22;9266;51.132;17.062;2023-04-08T04:03:04;4.50;99.90
18281;DHT22;9266;51.132;17.062;2023-04-08T04:05:31;4.50;99.90
18281;DHT22;9266;51.132;17.062;2023-04-08T04:07:58;4.50;99.90
18281;DHT22;9266;51.132;17.062;2023-04-08T04:10:25;4.50;99.90
18281;DHT22;9266;51.132;17.062;2023-04-08T04:12:52;4.50;99.90
18281;DHT22;9266;51.132;17.062;2023-04-08T04:15:21;4.50;99.90
18281;DHT22;9266;51.132;17.062;2023-04-08T04:17:49;4.40;99.90
18281;DHT22;9266;51.132;17.062;2023-04-08T04:20:16;4.50;99.90
18281;DHT22;9266;51.132;17.062;2023-04-08T04:22:44;4.50;99.90
18281;DHT22;9266;51.132;17.062;2023-04-08T04:25:11;4.50;99.90
18281;DHT22;9266;51.132;17.062;2023-04-08T04:27:38;4.50;99.90
18281;DHT22;9266;51.132;17.062;2023-04-08T04:30:06;4.40;99.90
18281;DHT22;9266;51.132;17.062;2023-04-08T04:32:35;4.40;99.90
18281;DHT22;9266;51.132;17.062;2023-04-08T04:35:02;4.60;99.90
18281;DHT22;9266;51.132;17.062;2023-04-08T04:37:29;4.40;99.90
18281;DHT22;9266;51.132;17.062;2023-04-08T04:39:56;4.40;99.90
18281;DHT22;9266;51.132;17.062;2023-04-08T04:42:23;4.40;99.90
18281;DHT22;9266;51.132;17.062;2023-04-08T04:44:50;4.40;99.90
18281;DHT22;9266;51.132;17.062;2023-04-08T04:47:18;4.40;99.90
18281;DHT22;9266;51.132;17.062;2023-04-08T04:49:46;4.40;99.90
18281;DHT22;9266;51.132;17.062;2023-04-08T04:52:13;4.40;99.90
18281;DHT22;9266;51.132;17.062;2023-04-08T04:54:40;4.70;99.90
18281;DHT22;9266;51.132;17.062;2023-04-08T04:57:07;4.40;99.90
18281;DHT22;9266;51.132;17.062;2023-04-08T04:59:35;4.40;99.90
18281;DHT22;9266;51.132;17.062;2023-04-08T05:02:02;4.40;99.90
18281;DHT22;9266;51.132;17.062;2023-04-08T05:04:30;4.40;99.90
18281;DHT22;9266;51.132;17.062;2023-04-08T05:06:59;2.80;99.90
18281;DHT22;9266;51.132;17.062;2023-04-08T05:09:27;4.40;99.90
18281;DHT22;9266;51.132;17.062;2023-04-08T05:11:55;4.40;99.90
18281;DHT22;9266;51.132;17.062;2023-04-08T05:14:22;4.40;99.90
18281;DHT22;9266;51.132;17.062;2023-04-08T05:16:49;4.40;99.90
18281;DHT22;9266;51.132;17.062;2023-04-08T05:19:16;4.40;99.90
18281;DHT22;9266;51.132;17.062;2023-04-08T05:21:43;4.40;99.90
18281;DHT22;9266;51.132;17.062;2023-04-08T05:24:11;4.40;99.90
18281;DHT22;9266;51.132;17.062;2023-04-08T05:26:38;4.40;99.90
18281;DHT22;9266;51.132;17.062;2023-04-08T05:29:05;4.40;99.90
18281;DHT22;9266;51.132;17.062;2023-04-08T05:31:32;4.40;99.90
18281;DHT22;9266;51.132;17.062;2023-04-08T05:33:59;4.40;99.90
18281;DHT22;9266;51.132;17.062;2023-04-08T05:36:26;4.40;99.90
18281;DHT22;9266;51.132;17.062;2023-04-08T05:38:53;4.50;99.90
18281;DHT22;9266;51.132;17.062;2023-04-08T05:41:21;4.50;99.90
18281;DHT22;9266;51.132;17.062;2023-04-08T05:43:48;4.50;99.90
18281;DHT22;9266;51.132;17.062;2023-04-08T05:46:15;4.50;99.90
18281;DHT22;9266;51.132;17.062;2023-04-08T05:48:42;4.50;99.90
18281;DHT22;9266;51.132;17.062;2023-04-08T05:51:12;4.60;99.90
18281;DHT22;9266;51.132;17.062;2023-04-08T05:53:40;4.60;99.90
18281;DHT22;9266;51.132;17.062;2023-04-08T05:56:07;4.60;92.30
18281;DHT22;9266;51.132;17.062;2023-04-08T05:58:35;4.60;27.10
18281;DHT22;9266;51.132;17.062;2023-04-08T06:01:02;4.60;28.40
18281;DHT22;9266;51.132;17.062;2023-04-08T06:03:31;4.60;58.50
18281;DHT22;9266;51.132;17.062;2023-04-08T06:05:58;4.70;99.90
18281;DHT22;9266;51.132;17.062;2023-04-08T06:08:25;4.70;60.20
18281;DHT22;9266;51.132;17.062;2023-04-08T06:10:52;7.10;87.30
18281;DHT22;9266;51.132;17.062;2023-04-08T06:13:18;4.80;99.90
18281;DHT22;9266;51.132;17.062;2023-04-08T06:15:48;4.80;99.90
18281;DHT22;9266;51.132;17.062;2023-04-08T06:18:15;4.70;99.90
18281;DHT22;9266;51.132;17.062;2023-04-08T06:20:42;4.70;99.90
18281;DHT22;9266;51.132;17.062;2023-04-08T06:23:09;4.80;99.90
18281;DHT22;9266;51.132;17.062;2023-04-08T06:25:36;4.90;99.90
18281;DHT22;9266;51.132;17.062;2023-04-08T06:28:03;4.90;99.90
18281;DHT22;9266;51.132;17.062;2023-04-08T06:30:30;6.70;99.90
18281;DHT22;9266;51.132;17.062;2023-04-08T06:32:58;5.10;99.90
18281;DHT22;9266;51.132;17.062;2023-04-08T06:35:25;5.20;49.30
18281;DHT22;9266;51.132;17.062;2023-04-08T06:37:52;5.40;27.90
18281;DHT22;9266;51.132;17.062;2023-04-08T06:40:19;5.40;30.50
18281;DHT22;9266;51.132;17.062;2023-04-08T06:42:46;5.30;1.00
18281;DHT22;9266;51.132;17.062;2023-04-08T06:45:13;5.30;1.00
18281;DHT22;9266;51.132;17.062;2023-04-08T06:47:40;5.50;1.00
18281;DHT22;9266;51.132;17.062;2023-04-08T06:50:09;7.70;1.00
18281;DHT22;9266;51.132;17.062;2023-04-08T06:52:36;5.40;1.00
18281;DHT22;9266;51.132;17.062;2023-04-08T06:55:04;5.50;1.00
18281;DHT22;9266;51.132;17.062;2023-04-08T06:57:31;5.60;99.90
18281;DHT22;9266;51.132;17.062;2023-04-08T06:59:58;5.60;99.90
18281;DHT22;9266;51.132;17.062;2023-04-08T07:02:25;5.90;1.00
18281;DHT22;9266;51.132;17.062;2023-04-08T07:04:52;6.10;1.00
18281;DHT22;9266;51.132;17.062;2023-04-08T07:07:21;6.20;99.90
18281;DHT22;9266;51.132;17.062;2023-04-08T07:09:48;5.90;99.90
18281;DHT22;9266;51.132;17.062;2023-04-08T07:12:16;5.80;1.00
18281;DHT22;9266;51.132;17.062;2023-04-08T07:14:43;4.60;99.90
18281;DHT22;9266;51.132;17.062;2023-04-08T07:17:10;5.90;1.00
18281;DHT22;9266;51.132;17.062;2023-04-08T07:19:37;5.90;1.00
18281;DHT22;9266;51.132;17.062;2023-04-08T07:22:04;5.90;1.00
18281;DHT22;9266;51.132;17.062;2023-04-08T07:24:32;5.90;99.90
18281;DHT22;9266;51.132;17.062;2023-04-08T07:27:00;6.00;1.00
18281;DHT22;9266;51.132;17.062;2023-04-08T07:29:26;6.00;1.00
18281;DHT22;9266;51.132;17.062;2023-04-08T07:31:53;6.10;1.00
18281;DHT22;9266;51.132;17.062;2023-04-08T07:34:20;6.10;1.00
18281;DHT22;9266;51.132;17.062;2023-04-08T07:36:47;6.30;1.00
18281;DHT22;9266;51.132;17.062;2023-04-08T07:39:15;6.40;99.90
18281;DHT22;9266;51.132;17.062;2023-04-08T07:41:43;6.40;99.90
18281;DHT22;9266;51.132;17.062;2023-04-08T07:44:10;6.40;1.00
18281;DHT22;9266;51.132;17.062;2023-04-08T07:46:41;6.30;1.00
18281;DHT22;9266;51.132;17.062;2023-04-08T07:49:10;6.40;99.90
18281;DHT22;9266;51.132;17.062;2023-04-08T07:51:37;6.30;99.90
18281;DHT22;9266;51.132;17.062;2023-04-08T07:54:04;6.30;1.00
18281;DHT22;9266;51.132;17.062;2023-04-08T07:56:31;6.30;99.90
18281;DHT22;9266;51.132;17.062;2023-04-08T07:58:59;6.20;99.90
18281;DHT22;9266;51.132;17.062;2023-04-08T08:01:26;6.20;99.90
18281;DHT22;9266;51.132;17.062;2023-04-08T08:03:55;6.10;99.90
18281;DHT22;9266;51.132;17.062;2023-04-08T08:06:22;6.10;99.90
18281;DHT22;9266;51.132;17.062;2023-04-08T08:08:50;5.00;99.90
18281;DHT22;9266;51.132;17.062;2023-04-08T08:11:17;6.10;99.90
18281;DHT22;9266;51.132;17.062;2023-04-08T08:13:44;6.10;99.90
18281;DHT22;9266;51.132;17.062;2023-04-08T08:16:13;6.40;1.00
18281;DHT22;9266;51.132;17.062;2023-04-08T08:18:40;6.70;99.90
18281;DHT22;9266;51.132;17.062;2023-04-08T08:21:07;6.80;1.00
18281;DHT22;9266;51.132;17.062;2023-04-08T08:23:34;6.90;1.00
18281;DHT22;9266;51.132;17.062;2023-04-08T08:26:02;6.80;99.90
18281;DHT22;9266;51.132;17.062;2023-04-08T08:28:30;6.90;1.00
18281;DHT22;9266;51.132;17.062;2023-04-08T08:30:58;6.90;99.90
18281;DHT22;9266;51.132;17.062;2023-04-08T08:33:26;6.80;1.00
18281;DHT22;9266;51.132;17.062;2023-04-08T08:35:53;6.90;1.00
18281;DHT22;9266;51.132;17.062;2023-04-08T08:38:22;6.80;1.00
18281;DHT22;9266;51.132;17.062;2023-04-08T08:40:53;6.70;1.00
18281;DHT22;9266;51.132;17.062;2023-04-08T08:43:20;6.80;99.90
18281;DHT22;9266;51.132;17.062;2023-04-08T08:45:48;6.90;99.90
18281;DHT22;9266;51.132;17.062;2023-04-08T08:48:15;7.00;99.90
18281;DHT22;9266;51.132;17.062;2023-04-08T08:50:43;7.00;1.00
18281;DHT22;9266;51.132;17.062;2023-04-08T08:53:11;7.00;94.50
18281;DHT22;9266;51.132;17.062;2023-04-08T08:55:38;7.00;99.90
18281;DHT22;9266;51.132;17.062;2023-04-08T08:58:05;7.00;99.90
18281;DHT22;9266;51.132;17.062;2023-04-08T09:00:34;7.20;1.00
18281;DHT22;9266;51.132;17.062;2023-04-08T09:03:15;7.10;1.00
18281;DHT22;9266;51.132;17.062;2023-04-08T09:05:51;7.30;1.00
18281;DHT22;9266;51.132;17.062;2023-04-08T09:08:29;7.50;1.00
18281;DHT22;9266;51.132;17.062;2023-04-08T09:11:11;7.50;99.90
18281;DHT22;9266;51.132;17.062;2023-04-08T09:13:39;7.50;99.90
18281;DHT22;9266;51.132;17.062;2023-04-08T09:16:07;7.50;1.00
18281;DHT22;9266;51.132;17.062;2023-04-08T09:18:35;7.60;1.00
18281;DHT22;9266;51.132;17.062;2023-04-08T09:21:04;7.60;99.90
18281;DHT22;9266;51.132;17.062;2023-04-08T09:23:42;7.50;1.00
18281;DHT22;9266;51.132;17.062;2023-04-08T09:26:11;7.50;99.90
18281;DHT22;9266;51.132;17.062;2023-04-08T09:28:39;7.50;99.90
18281;DHT22;9266;51.132;17.062;2023-04-08T09:31:21;7.60;1.00
18281;DHT22;9266;51.132;17.062;2023-04-08T09:33:48;8.00;99.90
18281;DHT22;9266;51.132;17.062;2023-04-08T09:36:17;8.10;99.90
18281;DHT22;9266;51.132;17.062;2023-04-08T09:38:44;8.20;99.90
18281;DHT22;9266;51.132;17.062;2023-04-08T09:41:13;8.10;99.90
18281;DHT22;9266;51.132;17.062;2023-04-08T09:43:42;8.30;13.90
18281;DHT22;9266;51.132;17.062;2023-04-08T09:46:14;8.10;1.00
18281;DHT22;9266;51.132;17.062;2023-04-08T09:48:51;8.00;97.40
18281;DHT22;9266;51.132;17.062;2023-04-08T09:51:23;8.20;99.90
18281;DHT22;9266;51.132;17.062;2023-04-08T09:53:55;11.00;5.70
18281;DHT22;9266;51.132;17.062;2023-04-08T09:56:26;8.30;1.00
18281;DHT22;9266;51.132;17.062;2023-04-08T09:59:00;8.20;77.80
18281;DHT22;9266;51.132;17.062;2023-04-08T10:01:35;8.70;1.00
18281;DHT22;9266;51.132;17.062;2023-04-08T10:04:04;8.90;1.00
18281;DHT22;9266;51.132;17.062;2023-04-08T10:06:34;9.20;1.00
18281;DHT22;9266;51.132;17.062;2023-04-08T10:09:02;9.50;1.00
18281;DHT22;9266;51.132;17.062;2023-04-08T10:11:29;9.90;1.00
18281;DHT22;9266;51.132;17.062;2023-04-08T10:13:57;9.90;1.00
18281;DHT22;9266;51.132;17.062;2023-04-08T10:16:24;9.60;1.00
18281;DHT22;9266;51.132;17.062;2023-04-08T10:18:52;9.80;1.00
18281;DHT22;9266;51.132;17.062;2023-04-08T10:21:36;9.70;1.00
18281;DHT22;9266;51.132;17.062;2023-04-08T10:24:06;9.20;1.00
18281;DHT22;9266;51.132;17.062;2023-04-08T10:26:38;10.70;1.00
18281;DHT22;9266;51.132;17.062;2023-04-08T10:29:30;9.00;1.00
18281;DHT22;9266;51.132;17.062;2023-04-08T10:31:58;9.20;1.00
18281;DHT22;9266;51.132;17.062;2023-04-08T10:34:26;9.10;1.00
18281;DHT22;9266;51.132;17.062;2023-04-08T10:36:55;9.00;1.00
18281;DHT22;9266;51.132;17.062;2023-04-08T10:39:24;9.00;1.00
18281;DHT22;9266;51.132;17.062;2023-04-08T10:41:52;9.00;1.00
18281;DHT22;9266;51.132;17.062;2023-04-08T10:44:21;9.00;1.00
18281;DHT22;9266;51.132;17.062;2023-04-08T10:46:49;9.20;1.00
18281;DHT22;9266;51.132;17.062;2023-04-08T10:49:16;9.50;1.00
18281;DHT22;9266;51.132;17.062;2023-04-08T10:51:44;9.80;1.00
18281;DHT22;9266;51.132;17.062;2023-04-08T10:54:14;9.70;1.00
18281;DHT22;9266;51.132;17.062;2023-04-08T10:56:46;10.00;99.90
18281;DHT22;9266;51.132;17.062;2023-04-08T10:59:14;10.50;99.90
18281;DHT22;9266;51.132;17.062;2023-04-08T11:01:43;11.00;99.90
18281;DHT22;9266;51.132;17.062;2023-04-08T11:04:12;11.00;99.90
18281;DHT22;9266;51.132;17.062;2023-04-08T11:06:41;10.70;99.90
18281;DHT22;9266;51.132;17.062;2023-04-08T11:09:08;10.90;99.90
18281;DHT22;9266;51.132;17.062;2023-04-08T11:11:37;11.10;99.90
18281;DHT22;9266;51.132;17.062;2023-04-08T11:14:04;11.00;99.90
18281;DHT22;9266;51.132;17.062;2023-04-08T11:16:33;11.40;99.90
18281;DHT22;9266;51.132;17.062;2023-04-08T11:19:02;11.30;99.90
18281;DHT22;9266;51.132;17.062;2023-04-08T11:21:30;11.20;99.90
18281;DHT22;9266;51.132;17.062;2023-04-08T11:23:57;11.60;99.90
18281;DHT22;9266;51.132;17.062;2023-04-08T11:26:24;11.10;99.90
18281;DHT22;9266;51.132;17.062;2023-04-08T11:28:55;11.00;99.90
18281;DHT22;9266;51.132;17.062;2023-04-08T11:31:23;11.10;99.90
18281;DHT22;9266;51.132;17.062;2023-04-08T11:33:52;11.10;81.20
18281;DHT22;9266;51.132;17.062;2023-04-08T11:36:20;11.10;84.80
18281;DHT22;9266;51.132;17.062;2023-04-08T11:38:47;11.30;99.90
18281;DHT22;9266;51.132;17.062;2023-04-08T11:41:14;11.50;38.30
18281;DHT22;9266;51.132;17.062;2023-04-08T11:43:54;11.90;1.00
18281;DHT22;9266;51.132;17.062;2023-04-08T11:46:21;11.80;1.00
18281;DHT22;9266;51.132;17.062;2023-04-08T11:49:03;11.60;1.00
18281;DHT22;9266;51.132;17.062;2023-04-08T11:51:31;12.00;1.00
18281;DHT22;9266;51.132;17.062;2023-04-08T11:53:59;12.00;1.00
18281;DHT22;9266;51.132;17.062;2023-04-08T11:56:26;11.80;1.00
18281;DHT22;9266;51.132;17.062;2023-04-08T11:58:56;11.30;1.00
18281;DHT22;9266;51.132;17.062;2023-04-08T12:01:23;10.70;1.00
18281;DHT22;9266;51.132;17.062;2023-04-08T12:03:58;11.10;1.00
18281;DHT22;9266;51.132;17.062;2023-04-08T12:06:26;11.50;1.00
18281;DHT22;9266;51.132;17.062;2023-04-08T12:08:54;11.20;1.00
18281;DHT22;9266;51.132;17.062;2023-04-08T12:11:22;10.50;1.00
18281;DHT22;9266;51.132;17.062;2023-04-08T12:13:50;10.30;1.00
18281;DHT22;9266;51.132;17.062;2023-04-08T12:16:18;10.30;1.00
18281;DHT22;9266;51.132;17.062;2023-04-08T12:18:46;10.60;1.00
18281;DHT22;9266;51.132;17.062;2023-04-08T12:21:13;10.80;1.00
18281;DHT22;9266;51.132;17.062;2023-04-08T12:23:40;11.10;1.00
18281;DHT22;9266;51.132;17.062;2023-04-08T12:26:07;11.10;1.00
18281;DHT22;9266;51.132;17.062;2023-04-08T12:28:34;11.30;1.00
18281;DHT22;9266;51.132;17.062;2023-04-08T12:31:01;11.30;1.00
18281;DHT22;9266;51.132;17.062;2023-04-08T12:33:31;11.20;1.00
18281;DHT22;9266;51.132;17.062;2023-04-08T12:35:58;11.40;1.00
18281;DHT22;9266;51.132;17.062;2023-04-08T12:38:25;11.50;1.00
18281;DHT22;9266;51.132;17.062;2023-04-08T12:40:53;11.40;1.00
18281;DHT22;9266;51.132;17.062;2023-04-08T12:43:20;11.70;1.00
18281;DHT22;9266;51.132;17.062;2023-04-08T12:45:48;11.90;1.00
18281;DHT22;9266;51.132;17.062;2023-04-08T12:48:15;12.10;1.00
18281;DHT22;9266;51.132;17.062;2023-04-08T12:50:44;11.90;1.00
18281;DHT22;9266;51.132;17.062;2023-04-08T12:53:11;11.60;1.00
18281;DHT22;9266;51.132;17.062;2023-04-08T12:55:38;10.80;1.00
18281;DHT22;9266;51.132;17.062;2023-04-08T12:58:05;10.40;1.00
18281;DHT22;9266;51.132;17.062;2023-04-08T13:00:32;10.50;1.00
18281;DHT22;9266;51.132;17.062;2023-04-08T13:03:02;10.50;1.00
18281;DHT22;9266;51.132;17.062;2023-04-08T13:05:29;10.80;1.00
18281;DHT22;9266;51.132;17.062;2023-04-08T13:07:57;11.30;1.00
18281;DHT22;9266;51.132;17.062;2023-04-08T13:10:24;11.30;1.00
18281;DHT22;9266;51.132;17.062;2023-04-08T13:12:52;10.80;1.00
18281;DHT22;9266;51.132;17.062;2023-04-08T13:15:19;10.80;1.00
18281;DHT22;9266;51.132;17.062;2023-04-08T13:17:46;10.60;1.00
18281;DHT22;9266;51.132;17.062;2023-04-08T13:20:13;10.40;1.00
18281;DHT22;9266;51.132;17.062;2023-04-08T13:22:40;10.70;1.00
18281;DHT22;9266;51.132;17.062;2023-04-08T13:25:09;11.30;1.00
18281;DHT22;9266;51.132;17.062;2023-04-08T13:27:36;11.50;1.00
18281;DHT22;9266;51.132;17.062;2023-04-08T13:30:03;12.00;1.00
18281;DHT22;9266;51.132;17.062;2023-04-08T13:32:30;12.20;1.00
18281;DHT22;9266;51.132;17.062;2023-04-08T13:34:57;11.80;1.00
18281;DHT22;9266;51.132;17.062;2023-04-08T13:37:24;11.50;1.00
18281;DHT22;9266;51.132;17.062;2023-04-08T13:39:51;11.30;1.00
18281;DHT22;9266;51.132;17.062;2023-04-08T13:42:20;11.20;1.00
18281;DHT22;9266;51.132;17.062;2023-04-08T13:44:47;11.30;1.00
18281;DHT22;9266;51.132;17.062;2023-04-08T13:47:14;11.60;1.00
18281;DHT22;9266;51.132;17.062;2023-04-08T13:49:41;11.90;1.00
18281;DHT22;9266;51.132;17.062;2023-04-08T13:52:08;11.70;1.00
18281;DHT22;9266;51.132;17.062;2023-04-08T13:54:35;11.80;1.00
18281;DHT22;9266;51.132;17.062;2023-04-08T13:57:02;12.30;1.00
18281;DHT22;9266;51.132;17.062;2023-04-08T13:59:30;12.10;1.00
18281;DHT22;9266;51.132;17.062;2023-04-08T14:01:57;12.10;1.00
18281;DHT22;9266;51.132;17.062;2023-04-08T14:04:24;11.80;1.00
18281;DHT22;9266;51.132;17.062;2023-04-08T14:06:51;11.90;1.00
18281;DHT22;9266;51.132;17.062;2023-04-08T14:09:18;11.90;1.00
18281;DHT22;9266;51.132;17.062;2023-04-08T14:11:45;12.00;1.00
18281;DHT22;9266;51.132;17.062;2023-04-08T14:14:13;11.80;1.00
18281;DHT22;9266;51.132;17.062;2023-04-08T14:16:41;12.00;1.00
18281;DHT22;9266;51.132;17.062;2023-04-08T14:19:09;12.10;1.00
18281;DHT22;9266;51.132;17.062;2023-04-08T14:21:36;12.10;1.00
18281;DHT22;9266;51.132;17.062;2023-04-08T14:24:04;12.00;1.00
18281;DHT22;9266;51.132;17.062;2023-04-08T14:26:31;11.80;1.00
18281;DHT22;9266;51.132;17.062;2023-04-08T14:29:01;12.00;1.00
18281;DHT22;9266;51.132;17.062;2023-04-08T14:31:29;11.90;1.00
18281;DHT22;9266;51.132;17.062;2023-04-08T14:33:57;11.50;1.00
18281;DHT22;9266;51.132;17.062;2023-04-08T14:36:25;11.80;1.00
18281;DHT22;9266;51.132;17.062;2023-04-08T14:38:52;11.80;1.00
18281;DHT22;9266;51.132;17.062;2023-04-08T14:41:19;11.70;1.00
18281;DHT22;9266;51.132;17.062;2023-04-08T14:43:47;12.10;1.00
18281;DHT22;9266;51.132;17.062;2023-04-08T14:46:14;12.10;1.00
18281;DHT22;9266;51.132;17.062;2023-04-08T14:48:41;12.30;1.00
18281;DHT22;9266;51.132;17.062;2023-04-08T14:51:09;12.20;1.00
18281;DHT22;9266;51.132;17.062;2023-04-08T14:53:36;12.40;1.00
18281;DHT22;9266;51.132;17.062;2023-04-08T14:56:03;12.50;1.00
18281;DHT22;9266;51.132;17.062;2023-04-08T14:58:30;12.50;1.00
18281;DHT22;9266;51.132;17.062;2023-04-08T15:00:57;12.50;1.00
18281;DHT22;9266;51.132;17.062;2023-04-08T15:03:24;12.20;1.00
18281;DHT22;9266;51.132;17.062;2023-04-08T15:05:52;11.90;1.00
18281;DHT22;9266;51.132;17.062;2023-04-08T15:08:21;11.70;1.00
18281;DHT22;9266;51.132;17.062;2023-04-08T15:10:48;11.70;1.00
18281;DHT22;9266;51.132;17.062;2023-04-08T15:13:15;11.80;1.00
18281;DHT22;9266;51.132;17.062;2023-04-08T15:15:42;11.80;1.00
18281;DHT22;9266;51.132;17.062;2023-04-08T15:18:09;11.50;1.00
18281;DHT22;9266;51.132;17.062;2023-04-08T15:20:36;11.50;1.00
18281;DHT22;9266;51.132;17.062;2023-04-08T15:23:03;11.70;1.00
18281;DHT22;9266;51.132;17.062;2023-04-08T15:25:32;11.90;1.00
18281;DHT22;9266;51.132;17.062;2023-04-08T15:27:59;11.90;1.00
18281;DHT22;9266;51.132;17.062;2023-04-08T15:30:27;12.10;1.00
18281;DHT22;9266;51.132;17.062;2023-04-08T15:33:00;12.00;1.00
18281;DHT22;9266;51.132;17.062;2023-04-08T15:35:27;11.90;1.00
18281;DHT22;9266;51.132;17.062;2023-04-08T15:37:55;11.90;1.00
18281;DHT22;9266;51.132;17.062;2023-04-08T15:40:22;11.90;1.00
18281;DHT22;9266;51.132;17.062;2023-04-08T15:42:50;12.00;1.00
18281;DHT22;9266;51.132;17.062;2023-04-08T15:45:17;12.00;1.00
18281;DHT22;9266;51.132;17.062;2023-04-08T15:47:44;11.90;1.00
18281;DHT22;9266;51.132;17.062;2023-04-08T15:50:11;11.60;1.00
18281;DHT22;9266;51.132;17.062;2023-04-08T15:52:39;11.50;1.00